Time;durP1;ratioP1;P1;durP2;ratioP2;P2;SDS_P1;SDS_P2;PMS_P1;PMS_P2;Temp;Humidity;BMP_temperature;BMP_pressure;BME280_temperature;BME280_humidity;BME280_pressure;Samples;Min_cycle;Max_cycle;Signal;HPM_P1;HPM_P2
2024/03/21 00:00:43;;;;;;;20.53;14.33;;;;;22.30;100719.00;;;;2036092;28;20365;-58
2024/03/21 00:01:44;;;;;;;21.20;14.63;;;;;22.30;100733.00;;;;2045835;28;20251;-58
2024/03/21 00:02:47;;;;;;;23.20;15.07;;;;;22.30;100722.00;;;;2044890;28;20219;-59
2024/03/21 00:03:47;;;;;;;21.58;15.15;;;;;22.30;100405.00;;;;2037391;28;20219;-58
2024/03/21 00:04:48;;;;;;;21.33;14.30;;;;;22.30;100714.00;;;;2038940;28;21080;-58
2024/03/21 00:05:49;;;;;;;20.27;14.40;;;;;22.20;100715.00;;;;2044446;28;20222;-58
2024/03/21 00:06:49;;;;;;;21.00;14.67;;;;;22.30;100721.00;;;;2060333;28;20207;-58
2024/03/21 00:07:49;;;;;;;20.50;14.33;;;;;22.30;100747.00;;;;2052041;28;20298;-58
2024/03/21 00:08:50;;;;;;;21.67;13.93;;;;;22.30;100723.00;;;;2057166;28;20211;-58
2024/03/21 00:09:50;;;;;;;17.10;13.00;;;;;22.30;100531.00;;;;2042978;28;20223;-58
2024/03/21 00:10:50;;;;;;;18.80;13.47;;;;;22.20;100723.00;;;;2033904;28;20693;-58
2024/03/21 00:11:51;;;;;;;19.93;13.33;;;;;22.20;100717.00;;;;2040662;28;20212;-58
2024/03/21 00:12:51;;;;;;;17.33;12.97;;;;;22.20;100730.00;;;;2051248;28;20254;-58
2024/03/21 00:13:51;;;;;;;18.30;14.00;;;;;21.80;100726.00;;;;2044640;28;20334;-58
2024/03/21 00:14:52;;;;;;;19.83;12.63;;;;;22.20;100722.00;;;;2036295;28;20212;-58
2024/03/21 00:15:52;;;;;;;17.57;13.27;;;;;22.20;100727.00;;;;2038528;28;20215;-58
2024/03/21 00:16:53;;;;;;;15.27;12.43;;;;;22.20;100728.00;;;;2044478;28;20231;-58
2024/03/21 00:17:53;;;;;;;16.00;12.50;;;;;22.20;100727.00;;;;2043234;28;20232;-58
2024/03/21 00:18:53;;;;;;;18.40;12.70;;;;;22.20;100721.00;;;;2041251;28;20220;-58
2024/03/21 00:19:54;;;;;;;20.20;12.57;;;;;22.20;100723.00;;;;2039203;28;21182;-58
2024/03/21 00:20:54;;;;;;;18.60;12.80;;;;;22.20;100729.00;;;;2033759;28;20769;-58
2024/03/21 00:21:55;;;;;;;20.43;12.83;;;;;22.20;100730.00;;;;2044801;28;20287;-58
2024/03/21 00:22:55;;;;;;;16.00;12.47;;;;;22.20;100723.00;;;;2049274;28;20228;-61
2024/03/21 00:23:56;;;;;;;18.00;12.20;;;;;22.20;100736.00;;;;2045192;28;20810;-59
2024/03/21 00:24:56;;;;;;;16.10;11.80;;;;;22.20;100712.00;;;;2044475;28;20328;-58
2024/03/21 00:26:00;;;;;;;16.67;11.80;;;;;22.20;100727.00;;;;2035606;28;20224;-58
2024/03/21 00:27:00;;;;;;;18.00;13.05;;;;;22.20;100599.00;;;;2051602;28;20204;-58
2024/03/21 00:28:01;;;;;;;16.40;11.60;;;;;22.20;100721.00;;;;2058104;28;20242;-58
2024/03/21 00:29:04;;;;;;;16.80;12.10;;;;;22.20;100723.00;;;;2044580;28;20208;-59
2024/03/21 00:30:05;;;;;;;18.38;12.20;;;;;22.20;100718.00;;;;2047857;28;20211;-58
2024/03/21 00:31:05;;;;;;;17.63;12.20;;;;;22.20;100719.00;;;;2044948;28;20204;-58
2024/03/21 00:32:06;;;;;;;16.73;11.80;;;;;22.20;100719.00;;;;2051260;28;20230;-58
2024/03/21 00:33:06;;;;;;;17.60;11.57;;;;;22.20;100710.00;;;;2044902;28;20986;-58
2024/03/21 00:34:08;;;;;;;15.37;11.57;;;;;22.20;100335.00;;;;2045203;28;20215;-58
2024/03/21 00:35:09;;;;;;;16.08;10.85;;;;;22.20;100711.00;;;;2029879;28;20340;-59
2024/03/21 00:36:09;;;;;;;16.90;11.30;;;;;22.20;100749.00;;;;2049552;28;20211;-58
2024/03/21 00:37:09;;;;;;;15.97;11.30;;;;;22.20;100714.00;;;;2046103;28;20355;-58
2024/03/21 00:38:10;;;;;;;15.30;11.13;;;;;22.20;100722.00;;;;2042290;28;20239;-58
2024/03/21 00:39:14;;;;;;;14.60;11.03;;;;;22.20;100721.00;;;;2043931;28;21047;-58
2024/03/21 00:40:14;;;;;;;16.58;11.25;;;;;22.20;100719.00;;;;2039930;28;20214;-58
2024/03/21 00:41:15;;;;;;;15.73;10.70;;;;;22.20;100720.00;;;;2059549;28;20830;-58
2024/03/21 00:42:15;;;;;;;16.03;10.80;;;;;22.20;100767.00;;;;2059537;28;20578;-58
2024/03/21 00:43:15;;;;;;;13.53;10.60;;;;;22.20;100718.00;;;;2060058;28;22476;-57
2024/03/21 00:44:16;;;;;;;15.13;10.77;;;;;22.10;100725.00;;;;2058491;28;20282;-58
2024/03/21 00:45:16;;;;;;;14.43;10.40;;;;;22.20;100720.00;;;;2034708;28;20227;-58
2024/03/21 00:46:17;;;;;;;17.00;10.90;;;;;22.20;100724.00;;;;2043333;28;20227;-59
2024/03/21 00:47:17;;;;;;;14.60;11.60;;;;;22.20;100723.00;;;;2049223;28;20215;-58
2024/03/21 00:48:18;;;;;;;14.17;10.43;;;;;22.20;100719.00;;;;2042482;28;20336;-58
2024/03/21 00:49:19;;;;;;;15.30;11.37;;;;;22.20;100717.00;;;;2047685;28;20231;-58
2024/03/21 00:50:20;;;;;;;14.55;9.80;;;;;22.10;100719.00;;;;2037772;28;20208;-58
2024/03/21 00:51:20;;;;;;;15.13;10.80;;;;;22.10;100709.00;;;;2055880;28;20215;-58
2024/03/21 00:52:20;;;;;;;14.60;10.00;;;;;22.10;100735.00;;;;2054815;28;20214;-58
2024/03/21 00:53:21;;;;;;;13.37;10.03;;;;;22.10;100721.00;;;;2040880;28;20216;-58
2024/03/21 00:54:22;;;;;;;14.50;10.30;;;;;22.10;100722.00;;;;2048442;28;20204;-58
2024/03/21 00:55:22;;;;;;;14.82;9.60;;;;;22.10;100721.00;;;;2037032;28;20312;-58
2024/03/21 00:56:22;;;;;;;17.73;10.50;;;;;22.10;100720.00;;;;2057616;28;20875;-58
2024/03/21 00:57:23;;;;;;;17.60;10.50;;;;;22.10;100726.00;;;;2052215;28;20833;-58
2024/03/21 00:58:26;;;;;;;13.90;9.67;;;;;22.10;100723.00;;;;2041316;28;22226;-58
2024/03/21 00:59:27;;;;;;;15.60;10.30;;;;;22.10;100725.00;;;;2044644;28;20459;-58
2024/03/21 01:00:27;;;;;;;14.83;10.27;;;;;22.10;100727.00;;;;2035281;28;20224;-58
2024/03/21 01:01:28;;;;;;;13.93;10.30;;;;;22.10;100730.00;;;;2045273;28;20212;-59
2024/03/21 01:02:28;;;;;;;14.77;9.93;;;;;22.10;100735.00;;;;2052059;28;20566;-59
2024/03/21 01:03:29;;;;;;;13.27;9.20;;;;;22.10;100736.00;;;;2048945;28;20204;-60
2024/03/21 01:04:29;;;;;;;11.77;9.20;;;;;22.10;100737.00;;;;2043404;28;20205;-61
2024/03/21 01:05:30;;;;;;;13.10;9.80;;;;;22.10;100745.00;;;;2049083;28;20334;-58
2024/03/21 01:06:30;;;;;;;12.83;9.90;;;;;22.10;100741.00;;;;2055569;28;20214;-58
2024/03/21 01:07:31;;;;;;;15.40;9.93;;;;;22.10;100753.00;;;;2047472;28;20220;-61
2024/03/21 01:08:31;;;;;;;13.00;9.23;;;;;22.10;100749.00;;;;2049973;28;20636;-60
2024/03/21 01:09:31;;;;;;;11.83;8.97;;;;;22.10;100745.00;;;;2044393;28;20717;-60
2024/03/21 01:10:32;;;;;;;12.43;8.70;;;;;22.10;100747.00;;;;2044742;28;20289;-59
2024/03/21 01:11:32;;;;;;;12.87;8.77;;;;;22.10;100751.00;;;;2053597;28;20206;-58
2024/03/21 01:12:32;;;;;;;17.43;9.73;;;;;22.10;100750.00;;;;2056695;28;20208;-60
2024/03/21 01:13:33;;;;;;;11.20;8.20;;;;;22.10;100747.00;;;;2051890;28;20265;-61
2024/03/21 01:14:33;;;;;;;11.83;8.67;;;;;22.10;100752.00;;;;2058079;28;20211;-61
2024/03/21 01:15:33;;;;;;;11.10;9.00;;;;;22.10;100743.00;;;;2052636;28;20226;-61
2024/03/21 01:16:34;;;;;;;13.30;9.10;;;;;22.10;100743.00;;;;2043522;28;20316;-59
2024/03/21 01:17:34;;;;;;;12.47;8.67;;;;;22.10;100748.00;;;;2044664;28;20219;-58
2024/03/21 01:18:35;;;;;;;13.90;9.17;;;;;22.10;100746.00;;;;2047094;28;20208;-60
2024/03/21 01:19:36;;;;;;;13.97;8.70;;;;;22.10;100746.00;;;;2042912;28;20579;-60
2024/03/21 01:20:40;;;;;;;10.15;7.65;;;;;22.10;100752.00;;;;2035221;28;20589;-59
2024/03/21 01:21:41;;;;;;;12.25;8.50;;;;;22.10;100749.00;;;;2057886;28;20211;-60
2024/03/21 01:22:41;;;;;;;11.90;8.40;;;;;22.10;100747.00;;;;2057471;28;20230;-60
2024/03/21 01:23:42;;;;;;;9.97;8.30;;;;;22.10;100753.00;;;;2042660;28;20216;-60
2024/03/21 01:24:48;;;;;;;14.13;8.70;;;;;22.10;100733.00;;;;2047863;28;20230;-59
2024/03/21 01:25:48;;;;;;;13.20;8.43;;;;;22.10;100744.00;;;;2041610;28;20234;-58
2024/03/21 01:26:49;;;;;;;10.87;8.60;;;;;22.10;100748.00;;;;2048880;28;20224;-58
2024/03/21 01:27:50;;;;;;;12.02;7.93;;;;;22.10;100746.00;;;;2043332;28;20219;-59
2024/03/21 01:28:51;;;;;;;14.00;8.80;;;;;22.10;100742.00;;;;2045635;28;20743;-59
2024/03/21 01:29:51;;;;;;;9.70;7.73;;;;;22.10;100747.00;;;;2051080;28;20215;-59
2024/03/21 01:30:52;;;;;;;11.50;7.70;;;;;22.10;100739.00;;;;2040784;28;20963;-58
2024/03/21 01:31:52;;;;;;;12.93;8.27;;;;;22.10;100755.00;;;;2044452;28;20216;-60
2024/03/21 01:32:52;;;;;;;12.00;7.97;;;;;22.00;100745.00;;;;2042601;28;20224;-60
2024/03/21 01:33:53;;;;;;;11.97;9.10;;;;;22.00;100757.00;;;;2047930;28;20231;-59
2024/03/21 01:34:54;;;;;;;11.40;7.97;;;;;22.00;100754.00;;;;2044413;28;20220;-59
2024/03/21 01:35:55;;;;;;;10.10;8.20;;;;;22.00;100811.00;;;;2035376;28;20227;-58
2024/03/21 01:36:57;;;;;;;10.70;7.78;;;;;22.10;100746.00;;;;2043430;28;20940;-60
2024/03/21 01:37:58;;;;;;;10.15;8.18;;;;;22.10;100746.00;;;;2044122;28;21069;-59
2024/03/21 01:38:58;;;;;;;9.40;7.23;;;;;22.10;100748.00;;;;2054665;28;20215;-58
2024/03/21 01:40:02;;;;;;;13.40;8.07;;;;;22.10;100744.00;;;;2050637;28;20227;-60
2024/03/21 01:41:06;;;;;;;10.80;7.18;;;;;22.00;100756.00;;;;2053244;28;20905;-58
2024/03/21 01:42:07;;;;;;;10.87;8.03;;;;;22.00;100733.00;;;;2045863;28;20224;-59
2024/03/21 01:43:24;;;;;;;9.13;7.03;;;;;22.10;100745.00;;;;2054659;28;20558;-59
2024/03/21 01:44:24;;;;;;;10.43;7.80;;;;;22.10;100735.00;;;;2054973;28;20237;-60
2024/03/21 01:45:25;;;;;;;10.30;7.40;;;;;22.00;100740.00;;;;2035672;28;20251;-60
2024/03/21 01:46:25;;;;;;;10.47;7.10;;;;;22.10;100743.00;;;;2046628;28;20271;-60
2024/03/21 01:47:26;;;;;;;10.60;7.60;;;;;22.00;100742.00;;;;2041545;28;20271;-58
2024/03/21 01:48:26;;;;;;;13.70;7.83;;;;;22.00;100752.00;;;;2046197;28;20727;-58
2024/03/21 01:49:26;;;;;;;8.43;6.87;;;;;22.00;100747.00;;;;2050888;28;20238;-58
2024/03/21 01:50:28;;;;;;;11.27;7.67;;;;;22.00;100748.00;;;;2043728;28;20227;-59
2024/03/21 01:51:28;;;;;;;8.85;6.75;;;;;22.00;100754.00;;;;2058817;28;20283;-60
2024/03/21 01:52:29;;;;;;;9.73;7.80;;;;;22.00;100748.00;;;;2048114;28;20271;-58
2024/03/21 01:53:29;;;;;;;9.50;6.87;;;;;22.00;100754.00;;;;2043332;28;20351;-58
2024/03/21 01:54:32;;;;;;;9.20;7.07;;;;;22.00;100767.00;;;;2046611;28;20228;-60
2024/03/21 01:55:32;;;;;;;9.63;6.95;;;;;22.00;100747.00;;;;2042747;28;20291;-58
2024/03/21 01:56:33;;;;;;;10.30;6.90;;;;;22.00;100754.00;;;;2049491;28;20215;-60
2024/03/21 01:57:35;;;;;;;10.80;7.10;;;;;22.00;100757.00;;;;2041681;28;20219;-59
2024/03/21 01:58:35;;;;;;;11.02;7.30;;;;;22.00;100580.00;;;;2048330;28;20246;-60
2024/03/21 01:59:36;;;;;;;9.43;6.67;;;;;22.00;100754.00;;;;2050084;28;20670;-60
2024/03/21 02:00:36;;;;;;;9.13;6.70;;;;;22.00;100754.00;;;;2041508;28;20223;-59
2024/03/21 02:01:37;;;;;;;10.17;7.30;;;;;22.00;100759.00;;;;2049723;28;20455;-59
2024/03/21 02:02:37;;;;;;;11.37;6.70;;;;;22.00;100790.00;;;;2035381;28;20209;-59
2024/03/21 02:03:37;;;;;;;8.80;7.00;;;;;22.00;100787.00;;;;2059250;28;20203;-59
2024/03/21 02:04:38;;;;;;;8.83;6.40;;;;;22.00;100768.00;;;;2057229;28;20575;-60
2024/03/21 02:05:38;;;;;;;9.70;7.60;;;;;22.00;100791.00;;;;2041887;28;20228;-58
2024/03/21 02:06:38;;;;;;;8.80;6.63;;;;;22.00;100765.00;;;;2049599;28;20215;-61
2024/03/21 02:07:39;;;;;;;8.67;6.50;;;;;22.00;100764.00;;;;2050272;28;20258;-57
2024/03/21 02:08:39;;;;;;;9.00;7.00;;;;;22.00;100771.00;;;;2044012;28;21031;-60
2024/03/21 02:09:40;;;;;;;7.80;5.97;;;;;22.00;100763.00;;;;2048916;28;20207;-59
2024/03/21 02:10:40;;;;;;;8.13;6.43;;;;;22.00;100760.00;;;;2036128;28;20232;-60
2024/03/21 02:11:40;;;;;;;9.97;7.20;;;;;22.00;100754.00;;;;2039480;28;20320;-60
2024/03/21 02:12:46;;;;;;;9.40;6.97;;;;;22.00;100760.00;;;;2040116;28;20201;-61
2024/03/21 02:13:51;;;;;;;10.05;6.50;;;;;22.00;100752.00;;;;2041920;28;20267;-59
2024/03/21 02:14:51;;;;;;;7.72;5.63;;;;;22.00;100754.00;;;;2058301;28;20211;-60
2024/03/21 02:15:52;;;;;;;12.40;6.13;;;;;22.00;100760.00;;;;2038395;28;20266;-59
2024/03/21 02:16:52;;;;;;;11.00;6.40;;;;;22.00;100757.00;;;;2041799;28;20460;-58
2024/03/21 02:17:52;;;;;;;9.67;6.73;;;;;22.00;100762.00;;;;2043821;28;20271;-60
2024/03/21 02:18:53;;;;;;;9.67;6.67;;;;;22.00;100765.00;;;;2045634;28;20207;-60
2024/03/21 02:19:53;;;;;;;8.17;6.47;;;;;22.00;100770.00;;;;2041295;28;20216;-59
2024/03/21 02:20:53;;;;;;;9.50;6.60;;;;;22.00;100770.00;;;;2034131;28;21029;-60
2024/03/21 02:23:13;;;;;;;8.05;5.80;;;;;22.00;100773.00;;;;2042770;28;20217;-61
2024/03/21 02:24:13;;;;;;;10.70;6.30;;;;;22.00;100764.00;;;;2048016;28;20290;-60
2024/03/21 02:25:13;;;;;;;9.00;6.07;;;;;21.90;100774.00;;;;2034560;28;20212;-59
2024/03/21 02:26:14;;;;;;;8.50;6.17;;;;;22.00;100759.00;;;;2051472;28;20234;-59
2024/03/21 02:27:14;;;;;;;7.53;5.70;;;;;21.90;100761.00;;;;2048309;28;20290;-58
2024/03/21 02:28:14;;;;;;;9.20;6.37;;;;;21.90;100768.00;;;;2040414;28;20216;-60
2024/03/21 02:29:15;;;;;;;8.10;5.70;;;;;21.90;100761.00;;;;2039434;28;20260;-59
2024/03/21 02:30:15;;;;;;;7.43;5.60;;;;;21.90;100769.00;;;;2034427;28;20209;-60
2024/03/21 02:31:19;;;;;;;8.57;6.33;;;;;21.90;100769.00;;;;2042493;28;20223;-59
2024/03/21 02:32:19;;;;;;;7.55;6.10;;;;;21.90;100770.00;;;;2043908;28;20205;-59
2024/03/21 02:33:20;;;;;;;7.83;6.00;;;;;21.90;100765.00;;;;2044435;28;20208;-59
2024/03/21 02:34:20;;;;;;;8.83;6.60;;;;;21.90;100763.00;;;;2040619;28;20766;-60
2024/03/21 02:35:20;;;;;;;9.27;6.60;;;;;21.90;100761.00;;;;2035372;28;20324;-59
2024/03/21 02:36:21;;;;;;;7.40;5.50;;;;;21.90;100761.00;;;;2048188;28;20208;-58
2024/03/21 02:37:21;;;;;;;8.30;6.03;;;;;21.90;100755.00;;;;2043385;28;20212;-60
2024/03/21 02:38:22;;;;;;;8.00;5.63;;;;;22.00;100765.00;;;;2043125;28;20216;-59
2024/03/21 02:39:23;;;;;;;8.47;6.00;;;;;22.00;100766.00;;;;2042463;28;20284;-58
2024/03/21 02:40:23;;;;;;;7.13;6.10;;;;;22.00;100774.00;;;;2038373;28;20296;-59
2024/03/21 02:41:23;;;;;;;7.97;6.17;;;;;21.90;100776.00;;;;2058931;28;20277;-60
2024/03/21 02:42:24;;;;;;;7.47;5.30;;;;;21.90;100775.00;;;;2054877;28;20369;-60
2024/03/21 02:43:24;;;;;;;6.50;4.90;;;;;22.00;100778.00;;;;2044792;28;20200;-59
2024/03/21 02:44:25;;;;;;;6.90;5.50;;;;;22.00;100772.00;;;;2037859;28;20264;-59
2024/03/21 02:45:25;;;;;;;8.70;5.77;;;;;21.90;100773.00;;;;2032240;28;20274;-59
2024/03/21 02:46:25;;;;;;;6.97;5.20;;;;;22.00;100771.00;;;;2040204;28;20314;-59
2024/03/21 02:47:26;;;;;;;10.40;6.27;;;;;21.90;100772.00;;;;2039179;28;20212;-58
2024/03/21 02:48:27;;;;;;;7.83;5.60;;;;;21.90;100766.00;;;;2043385;28;20303;-60
2024/03/21 02:49:27;;;;;;;7.60;5.57;;;;;21.90;100764.00;;;;2043117;28;20204;-60
2024/03/21 02:50:28;;;;;;;8.47;5.33;;;;;22.00;100767.00;;;;2032942;28;20232;-59
2024/03/21 02:51:28;;;;;;;8.30;5.87;;;;;22.00;100767.00;;;;2042293;28;20216;-60
2024/03/21 02:52:28;;;;;;;7.37;5.53;;;;;21.90;100772.00;;;;2046161;28;20246;-59
2024/03/21 02:53:29;;;;;;;7.40;5.47;;;;;21.90;100768.00;;;;2043348;28;20212;-59
2024/03/21 02:54:31;;;;;;;7.20;5.60;;;;;21.90;100774.00;;;;2050843;28;20215;-59
2024/03/21 02:55:31;;;;;;;7.50;5.60;;;;;21.90;100765.00;;;;2043395;28;20677;-58
2024/03/21 02:56:32;;;;;;;7.70;6.07;;;;;21.90;100769.00;;;;2042435;28;20215;-59
2024/03/21 02:57:33;;;;;;;8.00;5.90;;;;;21.90;100768.00;;;;2039318;28;20220;-61
2024/03/21 02:58:33;;;;;;;8.20;5.20;;;;;21.90;100773.00;;;;2033459;28;20311;-60
2024/03/21 02:59:34;;;;;;;8.40;6.00;;;;;21.90;100768.00;;;;2036195;28;20243;-60
2024/03/21 03:00:34;;;;;;;9.30;5.23;;;;;21.90;100778.00;;;;2028833;28;20270;-58
2024/03/21 03:01:34;;;;;;;6.80;5.17;;;;;21.90;100782.00;;;;2041568;28;20216;-60
2024/03/21 03:02:36;;;;;;;7.97;5.13;;;;;21.90;100778.00;;;;2039866;28;20215;-59
2024/03/21 03:03:36;;;;;;;7.93;5.72;;;;;21.90;100780.00;;;;2041379;28;20849;-58
2024/03/21 03:04:37;;;;;;;7.30;5.47;;;;;21.90;100787.00;;;;2043185;28;20219;-60
2024/03/21 03:05:41;;;;;;;7.67;5.60;;;;;21.90;100788.00;;;;2033345;28;20590;-61
2024/03/21 03:06:41;;;;;;;7.95;5.55;;;;;21.90;100785.00;;;;2060500;28;21452;-60
2024/03/21 03:07:42;;;;;;;6.90;5.80;;;;;21.90;100784.00;;;;2050254;28;20212;-58
2024/03/21 03:08:42;;;;;;;8.67;5.83;;;;;21.90;100775.00;;;;2042341;28;20212;-59
2024/03/21 03:09:42;;;;;;;8.97;5.10;;;;;21.90;100834.00;;;;2041974;28;20220;-58
2024/03/21 03:10:43;;;;;;;7.80;5.57;;;;;21.90;100777.00;;;;2033993;28;20215;-61
2024/03/21 03:11:43;;;;;;;6.60;5.10;;;;;21.90;100781.00;;;;2047551;28;20247;-59
2024/03/21 03:12:43;;;;;;;8.63;6.07;;;;;21.90;100790.00;;;;2040925;28;20224;-60
2024/03/21 03:13:44;;;;;;;7.70;5.50;;;;;21.90;100789.00;;;;2040976;28;20292;-60
2024/03/21 03:14:44;;;;;;;7.27;5.60;;;;;21.90;100790.00;;;;2041106;28;20212;-60
2024/03/21 03:15:45;;;;;;;9.17;5.27;;;;;21.90;100805.00;;;;2043231;28;20215;-59
2024/03/21 03:16:45;;;;;;;6.40;5.40;;;;;21.20;100795.00;;;;2052415;28;20223;-59
2024/03/21 03:17:45;;;;;;;6.73;5.50;;;;;21.90;100844.00;;;;2048090;28;20328;-60
2024/03/21 03:18:46;;;;;;;7.77;5.83;;;;;21.90;100791.00;;;;2039354;28;20208;-60
2024/03/21 03:19:46;;;;;;;10.30;6.20;;;;;21.90;100772.00;;;;2043022;28;20579;-59
2024/03/21 03:20:46;;;;;;;8.03;5.40;;;;;21.90;100782.00;;;;2033260;28;20220;-60
2024/03/21 03:21:47;;;;;;;7.20;4.80;;;;;21.90;100788.00;;;;2041431;28;20209;-60
2024/03/21 03:22:47;;;;;;;8.47;5.43;;;;;21.90;100780.00;;;;2036345;28;20208;-57
2024/03/21 03:23:48;;;;;;;7.00;5.00;;;;;21.90;100773.00;;;;2043047;28;20930;-59
2024/03/21 03:24:48;;;;;;;7.87;5.30;;;;;21.80;100773.00;;;;2046003;28;20212;-60
2024/03/21 03:25:48;;;;;;;7.70;5.23;;;;;21.90;100778.00;;;;2042747;28;20207;-60
2024/03/21 03:26:49;;;;;;;7.90;5.87;;;;;21.90;100777.00;;;;2043818;28;20228;-59
2024/03/21 03:27:49;;;;;;;7.03;5.30;;;;;21.90;100774.00;;;;2038204;28;20224;-60
2024/03/21 03:28:50;;;;;;;7.90;5.70;;;;;21.80;100773.00;;;;2043676;28;20572;-60
2024/03/21 03:29:51;;;;;;;7.80;5.80;;;;;21.80;100780.00;;;;2049238;28;20705;-59
2024/03/21 03:30:51;;;;;;;7.00;4.97;;;;;21.80;100778.00;;;;2045396;28;20206;-60
2024/03/21 03:32:00;;;;;;;7.17;5.70;;;;;21.80;100776.00;;;;2040917;28;20235;-59
2024/03/21 03:35:33;;;;;;;7.50;5.15;;;;;21.80;100777.00;;;;2039756;28;20709;-58
2024/03/21 03:35:44;;;;;;;6.53;4.50;;;;;21.80;100782.00;;;;2038575;28;20211;-58
2024/03/21 03:36:45;;;;;;;6.20;5.15;;;;;21.80;100775.00;;;;2043272;28;20212;-57
2024/03/21 03:37:45;;;;;;;6.60;5.00;;;;;21.80;100828.00;;;;2043764;28;20223;-57
2024/03/21 03:38:45;;;;;;;7.73;5.87;;;;;21.80;100780.00;;;;2051191;28;20299;-57
2024/03/21 03:39:46;;;;;;;7.53;5.03;;;;;21.80;100810.00;;;;2054934;28;20686;-57
2024/03/21 03:40:47;;;;;;;7.87;5.13;;;;;21.80;100787.00;;;;2033097;28;20701;-58
2024/03/21 03:41:47;;;;;;;6.60;4.97;;;;;21.80;100792.00;;;;2042789;28;20219;-57
2024/03/21 03:42:47;;;;;;;6.50;4.60;;;;;21.80;100793.00;;;;2038978;28;20681;-57
2024/03/21 03:43:48;;;;;;;6.57;4.87;;;;;21.80;100798.00;;;;2043263;28;20227;-59
2024/03/21 03:44:48;;;;;;;8.13;5.43;;;;;21.20;100793.00;;;;2049411;28;20215;-58
2024/03/21 03:45:49;;;;;;;8.03;5.47;;;;;21.80;100793.00;;;;2044729;28;20215;-58
2024/03/21 03:46:49;;;;;;;6.17;5.10;;;;;21.80;100798.00;;;;2049983;28;20304;-58
2024/03/21 03:47:49;;;;;;;8.80;5.37;;;;;21.80;100800.00;;;;2049064;28;20212;-58
2024/03/21 03:48:50;;;;;;;6.40;4.43;;;;;21.90;100794.00;;;;2042532;28;20220;-58
2024/03/21 03:49:50;;;;;;;7.20;4.77;;;;;21.90;100802.00;;;;2035650;28;20303;-58
2024/03/21 03:50:50;;;;;;;6.63;5.00;;;;;21.80;100803.00;;;;2048195;28;20628;-58
2024/03/21 03:51:50;;;;;;;8.43;4.80;;;;;21.90;100800.00;;;;2054721;28;20219;-58
2024/03/21 03:52:51;;;;;;;6.27;5.10;;;;;21.80;100797.00;;;;2040024;28;20220;-58
2024/03/21 03:53:51;;;;;;;7.20;5.23;;;;;21.80;100798.00;;;;2043087;28;20247;-58
2024/03/21 03:54:51;;;;;;;5.87;5.00;;;;;21.80;100799.00;;;;2044409;28;20223;-58
2024/03/21 03:55:52;;;;;;;6.93;4.90;;;;;21.80;100811.00;;;;2045898;28;20214;-58
2024/03/21 03:56:52;;;;;;;7.00;4.90;;;;;21.80;100804.00;;;;2055130;28;20215;-58
2024/03/21 03:57:53;;;;;;;7.47;5.60;;;;;21.80;100798.00;;;;2041996;28;20236;-58
2024/03/21 03:58:53;;;;;;;6.17;4.93;;;;;21.80;100800.00;;;;2042109;28;20303;-58
2024/03/21 03:59:53;;;;;;;8.23;4.83;;;;;21.80;100799.00;;;;2047707;28;20223;-58
2024/03/21 04:01:00;;;;;;;6.57;4.83;;;;;21.80;100820.00;;;;2040623;28;20231;-58
2024/03/21 04:02:00;;;;;;;6.30;4.50;;;;;21.80;100804.00;;;;2039622;28;20213;-58
2024/03/21 04:03:00;;;;;;;4.90;3.97;;;;;21.80;100810.00;;;;2042076;28;20308;-58
2024/03/21 04:04:01;;;;;;;5.73;4.47;;;;;21.80;100802.00;;;;2044839;28;20211;-58
2024/03/21 04:05:01;;;;;;;6.03;5.00;;;;;21.80;100813.00;;;;2050064;28;20215;-58
2024/03/21 04:06:03;;;;;;;6.30;4.97;;;;;21.80;100815.00;;;;2036783;28;20212;-58
2024/03/21 04:07:03;;;;;;;7.25;4.75;;;;;21.80;100811.00;;;;2062135;28;20730;-58
2024/03/21 04:08:04;;;;;;;6.40;4.87;;;;;21.40;100807.00;;;;2055795;28;20244;-58
2024/03/21 04:09:04;;;;;;;6.47;4.60;;;;;21.80;100805.00;;;;2048758;28;20218;-58
2024/03/21 04:10:08;;;;;;;6.80;4.83;;;;;21.80;100809.00;;;;2039691;28;20216;-58
2024/03/21 04:11:13;;;;;;;6.90;5.03;;;;;21.30;100814.00;;;;2042098;28;20228;-58
2024/03/21 04:12:14;;;;;;;6.15;4.60;;;;;21.80;100811.00;;;;2041515;28;20287;-58
2024/03/21 04:13:14;;;;;;;7.03;4.55;;;;;21.80;100823.00;;;;2040084;28;20232;-58
2024/03/21 04:14:15;;;;;;;6.20;4.70;;;;;21.80;100826.00;;;;2041855;28;20215;-58
2024/03/21 04:15:15;;;;;;;6.20;4.37;;;;;21.80;100803.00;;;;2036973;28;20212;-58
2024/03/21 04:16:17;;;;;;;8.00;5.27;;;;;21.80;100814.00;;;;2049442;28;20211;-58
2024/03/21 04:17:17;;;;;;;7.03;4.47;;;;;21.80;100825.00;;;;2049972;28;20211;-58
2024/03/21 04:18:18;;;;;;;8.20;5.17;;;;;21.80;100822.00;;;;2050910;28;20234;-58
2024/03/21 04:19:18;;;;;;;6.53;5.00;;;;;21.80;100831.00;;;;2043368;28;20208;-60
2024/03/21 04:20:19;;;;;;;7.67;5.10;;;;;21.80;100899.00;;;;2034685;28;20587;-60
2024/03/21 04:21:19;;;;;;;7.90;4.80;;;;;21.80;100838.00;;;;2044028;28;20216;-59
2024/03/21 04:22:19;;;;;;;7.70;5.00;;;;;21.80;100830.00;;;;2044075;28;20227;-59
2024/03/21 04:23:20;;;;;;;6.10;4.97;;;;;21.80;100836.00;;;;2043587;28;20210;-58
2024/03/21 04:24:20;;;;;;;6.67;4.40;;;;;21.80;100846.00;;;;2041965;28;20295;-58
2024/03/21 04:25:20;;;;;;;6.97;4.70;;;;;21.80;100843.00;;;;2037621;28;20216;-58
2024/03/21 04:26:21;;;;;;;4.90;3.70;;;;;21.80;100845.00;;;;2047608;28;20682;-59
2024/03/21 04:27:22;;;;;;;5.20;4.30;;;;;21.80;100827.00;;;;2041483;28;20212;-58
2024/03/21 04:28:22;;;;;;;7.13;4.30;;;;;21.80;100848.00;;;;2051405;28;20454;-58
2024/03/21 04:29:22;;;;;;;6.90;4.70;;;;;21.80;100858.00;;;;2059676;28;20203;-58
2024/03/21 04:30:23;;;;;;;7.13;4.90;;;;;21.80;100847.00;;;;2050991;28;20311;-58
2024/03/21 04:31:23;;;;;;;6.43;4.50;;;;;21.80;100845.00;;;;2044673;28;20224;-58
2024/03/21 04:32:25;;;;;;;6.60;4.90;;;;;21.80;100847.00;;;;2046230;28;21609;-58
2024/03/21 04:33:25;;;;;;;5.35;3.88;;;;;21.80;100844.00;;;;2049474;28;20204;-58
2024/03/21 04:34:25;;;;;;;7.23;4.10;;;;;21.80;100858.00;;;;2044264;28;20873;-59
2024/03/21 04:35:26;;;;;;;7.57;4.37;;;;;21.80;100865.00;;;;2032303;28;21111;-58
2024/03/21 04:36:26;;;;;;;7.70;4.43;;;;;21.80;100861.00;;;;2043907;28;20623;-58
2024/03/21 04:37:29;;;;;;;5.60;4.20;;;;;21.80;100862.00;;;;2043608;28;20216;-58
2024/03/21 04:38:29;;;;;;;5.97;4.05;;;;;21.80;100860.00;;;;2043369;28;20299;-58
2024/03/21 04:39:29;;;;;;;7.13;4.90;;;;;21.80;100867.00;;;;2045032;28;20211;-58
2024/03/21 04:40:30;;;;;;;6.73;4.60;;;;;21.80;100871.00;;;;2030791;28;20360;-58
2024/03/21 04:41:30;;;;;;;7.00;4.53;;;;;21.80;100882.00;;;;2038248;28;20224;-58
2024/03/21 04:42:30;;;;;;;5.07;3.90;;;;;21.80;100879.00;;;;2042506;28;20212;-58
2024/03/21 04:43:31;;;;;;;5.17;3.87;;;;;21.70;100860.00;;;;2042372;28;20208;-59
2024/03/21 04:44:31;;;;;;;5.93;3.93;;;;;21.80;100924.00;;;;2043585;28;20299;-58
2024/03/21 04:45:31;;;;;;;6.40;3.97;;;;;21.70;100878.00;;;;2042233;28;20227;-58
2024/03/21 04:46:32;;;;;;;5.47;3.60;;;;;21.80;100884.00;;;;2057705;28;20691;-58
2024/03/21 04:47:33;;;;;;;4.87;3.70;;;;;21.80;100884.00;;;;2055372;28;20215;-58
2024/03/21 04:48:33;;;;;;;6.90;3.90;;;;;21.80;100945.00;;;;2043946;28;20208;-58
2024/03/21 04:49:33;;;;;;;6.60;4.20;;;;;21.80;100893.00;;;;2043199;28;20771;-58
2024/03/21 04:50:34;;;;;;;5.40;3.90;;;;;21.80;100889.00;;;;2048463;28;20368;-58
2024/03/21 04:51:34;;;;;;;7.47;4.57;;;;;21.70;100884.00;;;;2059770;28;20222;-58
2024/03/21 04:52:34;;;;;;;5.50;4.17;;;;;21.70;100889.00;;;;2046509;28;20304;-58
2024/03/21 04:53:35;;;;;;;5.50;4.40;;;;;21.70;100893.00;;;;2044174;28;20235;-58
2024/03/21 04:54:36;;;;;;;5.57;4.43;;;;;21.70;100909.00;;;;2046573;28;20215;-58
2024/03/21 04:55:36;;;;;;;4.90;3.93;;;;;21.80;100903.00;;;;2035191;28;20483;-58
2024/03/21 04:56:37;;;;;;;7.53;4.00;;;;;21.80;100954.00;;;;2038606;28;20717;-58
2024/03/21 04:57:38;;;;;;;6.90;4.57;;;;;21.80;100901.00;;;;2040275;28;20223;-58
2024/03/21 04:58:38;;;;;;;5.47;4.13;;;;;21.80;100901.00;;;;2041689;28;20704;-58
2024/03/21 04:59:38;;;;;;;5.43;4.07;;;;;21.70;100893.00;;;;2040897;28;20464;-58
2024/03/21 05:00:39;;;;;;;5.47;4.00;;;;;21.70;100892.00;;;;2035047;28;20231;-58
2024/03/21 05:01:39;;;;;;;6.30;4.37;;;;;21.70;100888.00;;;;2043217;28;20224;-58